Time;durP1;ratioP1;P1;durP2;ratioP2;P2;SDS_P1;SDS_P2;PMS_P1;PMS_P2;Temp;Humidity;BMP_temperature;BMP_pressure;BME280_temperature;BME280_humidity;BME280_pressure;Samples;Min_cycle;Max_cycle;Signal;HPM_P1;HPM_P2
2021/08/26 00:06:52;;;;;;;7.35;3.08;;;19.90;71.50;;;;;;5098841;28;20127;-70
2021/08/26 00:09:17;;;;;;;7.75;2.47;;;19.90;71.50;;;;;;5099702;28;20051;-70
2021/08/26 00:11:48;;;;;;;7.43;2.00;;;19.90;71.50;;;;;;5099073;28;20459;-69
2021/08/26 00:14:15;;;;;;;8.95;2.38;;;19.90;71.40;;;;;;5099699;28;20355;-70
2021/08/26 00:16:41;;;;;;;8.95;2.67;;;19.90;71.50;;;;;;5099634;28;20054;-70
2021/08/26 00:19:11;;;;;;;6.68;1.95;;;19.90;71.50;;;;;;5098649;28;20036;-70
2021/08/26 00:21:41;;;;;;;10.27;2.33;;;19.90;71.20;;;;;;5098925;28;20123;-70
2021/08/26 00:24:09;;;;;;;6.85;2.45;;;19.90;71.30;;;;;;5099055;28;20043;-69
2021/08/26 00:26:35;;;;;;;7.50;2.25;;;19.90;71.20;;;;;;5080265;28;20394;-70
2021/08/26 00:29:03;;;;;;;6.90;2.30;;;19.80;71.30;;;;;;5078144;28;20048;-70
2021/08/26 00:31:29;;;;;;;7.03;2.33;;;19.90;71.30;;;;;;5077817;28;20040;-70
2021/08/26 00:33:55;;;;;;;9.25;2.33;;;19.80;70.90;;;;;;5078371;28;20114;-69
2021/08/26 00:36:21;;;;;;;6.68;2.22;;;19.80;70.90;;;;;;5078209;28;20432;-69
2021/08/26 00:38:47;;;;;;;8.38;2.30;;;19.80;70.90;;;;;;5078475;28;20187;-70
2021/08/26 00:41:16;;;;;;;5.63;1.80;;;19.90;71.00;;;;;;5078158;28;20123;-70
2021/08/26 00:43:42;;;;;;;6.93;1.98;;;19.80;70.80;;;;;;5078098;28;20044;-70
2021/08/26 00:46:14;;;;;;;8.00;2.17;;;19.80;70.50;;;;;;5078487;28;20036;-70
2021/08/26 00:48:44;;;;;;;5.97;1.85;;;19.80;70.50;;;;;;5088155;28;20044;-70
2021/08/26 00:51:10;;;;;;;9.40;2.53;;;19.80;70.60;;;;;;5098106;28;20477;-69
2021/08/26 00:53:36;;;;;;;5.70;1.95;;;19.80;70.70;;;;;;5098633;28;20064;-70
2021/08/26 00:56:02;;;;;;;8.48;2.30;;;19.80;70.60;;;;;;5097405;28;20168;-69
2021/08/26 00:58:31;;;;;;;8.13;2.38;;;19.80;70.80;;;;;;5098108;28;20065;-70
2021/08/26 01:01:09;;;;;;;6.25;1.85;;;19.80;70.90;;;;;;5097716;28;20052;-69
2021/08/26 01:04:06;;;;;;;9.05;2.35;;;19.80;70.70;;;;;;5098131;28;20125;-69
2021/08/26 01:07:10;;;;;;;6.15;2.20;;;19.80;70.60;;;;;;5062043;28;20463;-70
2021/08/26 01:09:46;;;;;;;8.20;2.17;;;19.80;70.80;;;;;;5042197;28;20047;-69
2021/08/26 01:12:18;;;;;;;7.97;2.15;;;19.80;70.80;;;;;;5082827;28;20045;-70
2021/08/26 01:14:44;;;;;;;9.13;2.50;;;19.80;70.80;;;;;;5076932;28;20040;-70
2021/08/26 01:17:22;;;;;;;7.13;2.33;;;19.80;71.10;;;;;;5077515;28;20485;-70
2021/08/26 01:19:49;;;;;;;8.32;2.05;;;19.80;71.20;;;;;;5077875;28;20309;-69
2021/08/26 01:22:16;;;;;;;7.07;1.83;;;19.80;71.20;;;;;;5043738;28;20040;-69
2021/08/26 01:24:45;;;;;;;9.57;2.38;;;19.80;71.20;;;;;;5077593;28;20072;-69
2021/08/26 01:27:13;;;;;;;8.82;2.40;;;19.80;71.10;;;;;;5077206;28;20068;-69
2021/08/26 01:29:40;;;;;;;5.47;2.10;;;19.80;71.10;;;;;;5077267;28;20119;-70
2021/08/26 01:32:07;;;;;;;7.57;1.95;;;19.80;71.10;;;;;;5077378;28;20055;-70
2021/08/26 01:34:32;;;;;;;7.13;1.80;;;19.80;71.10;;;;;;5084962;28;20046;-69
2021/08/26 01:36:58;;;;;;;9.52;2.05;;;19.80;71.10;;;;;;5097577;28;20051;-69
2021/08/26 01:39:24;;;;;;;7.25;2.30;;;19.80;70.90;;;;;;5097441;28;20127;-69
2021/08/26 01:41:51;;;;;;;6.82;1.63;;;19.80;70.80;;;;;;5079212;28;20044;-70
2021/08/26 01:44:21;;;;;;;7.82;1.92;;;19.80;70.80;;;;;;5096592;28;20445;-69
2021/08/26 01:46:48;;;;;;;8.18;2.22;;;19.80;70.80;;;;;;5097010;28;20036;-70
2021/08/26 01:49:14;;;;;;;6.80;1.77;;;19.80;70.90;;;;;;5097431;28;20484;-69
2021/08/26 01:51:40;;;;;;;7.18;1.67;;;19.80;70.90;;;;;;5097036;28;20044;-70
2021/08/26 01:54:07;;;;;;;7.43;2.20;;;19.80;70.90;;;;;;5096899;28;20097;-70
2021/08/26 01:56:33;;;;;;;4.75;1.67;;;19.80;70.90;;;;;;5096464;28;20101;-70
2021/08/26 01:58:59;;;;;;;8.10;1.98;;;19.80;71.00;;;;;;5076338;28;20040;-70
2021/08/26 02:01:25;;;;;;;5.53;1.70;;;19.80;70.80;;;;;;5078557;28;20459;-70
2021/08/26 02:03:51;;;;;;;6.65;1.98;;;19.70;70.70;;;;;;5096905;28;20048;-70
2021/08/26 02:06:16;;;;;;;8.93;1.90;;;19.80;70.80;;;;;;5096751;28;20381;-70
2021/08/26 02:08:42;;;;;;;5.07;1.55;;;19.80;71.00;;;;;;5096859;28;20050;-69
2021/08/26 02:11:08;;;;;;;6.35;1.83;;;19.80;70.80;;;;;;5094738;28;20097;-70
2021/08/26 02:13:34;;;;;;;4.72;1.40;;;19.70;70.70;;;;;;5096353;28;20058;-70
2021/08/26 02:15:59;;;;;;;8.35;2.22;;;19.70;70.50;;;;;;5096703;28;20105;-69
2021/08/26 02:18:25;;;;;;;10.43;1.70;;;19.70;70.50;;;;;;5096393;28;20036;-69
2021/08/26 02:20:51;;;;;;;6.63;1.65;;;19.70;70.40;;;;;;5096625;28;20044;-70
2021/08/26 02:23:16;;;;;;;9.95;1.75;;;19.70;70.20;;;;;;5096461;28;20075;-69
2021/08/26 02:25:42;;;;;;;6.35;1.85;;;19.70;70.30;;;;;;5083332;28;20037;-69
2021/08/26 02:28:08;;;;;;;7.25;1.42;;;19.70;70.50;;;;;;5076229;28;20474;-69
2021/08/26 02:30:33;;;;;;;5.13;1.40;;;19.60;70.50;;;;;;5075803;28;20067;-69
2021/08/26 02:32:59;;;;;;;4.28;1.42;;;19.70;70.70;;;;;;5076060;28;20052;-70
2021/08/26 02:35:25;;;;;;;4.57;1.42;;;19.70;70.60;;;;;;5075825;28;20079;-70
2021/08/26 02:37:51;;;;;;;6.53;1.48;;;19.70;70.60;;;;;;5075948;28;20040;-69
2021/08/26 02:40:16;;;;;;;4.43;1.20;;;19.70;70.70;;;;;;5076023;28;20054;-69
2021/08/26 02:42:42;;;;;;;4.82;1.42;;;19.70;70.70;;;;;;5075975;28;20062;-69
2021/08/26 02:45:08;;;;;;;5.57;1.52;;;19.60;70.60;;;;;;5075843;28;20051;-70
2021/08/26 02:47:34;;;;;;;5.43;1.50;;;19.70;70.80;;;;;;5077553;28;20055;-69
2021/08/26 02:49:59;;;;;;;5.10;1.30;;;19.60;71.00;;;;;;5096071;28;20052;-70
2021/08/26 02:52:25;;;;;;;5.63;1.55;;;19.70;70.80;;;;;;5077928;28;20123;-70
2021/08/26 02:54:51;;;;;;;5.93;1.45;;;19.60;70.70;;;;;;5095801;28;20043;-70
2021/08/26 02:57:16;;;;;;;5.40;1.30;;;19.60;70.80;;;;;;5095994;28;20435;-69
2021/08/26 02:59:42;;;;;;;6.63;1.15;;;19.60;70.80;;;;;;5095629;28;20043;-70
2021/08/26 03:02:08;;;;;;;7.03;1.65;;;19.70;70.90;;;;;;5095994;28;20059;-69
2021/08/26 03:04:34;;;;;;;5.78;1.92;;;19.70;71.00;;;;;;5095885;28;20054;-69
2021/08/26 03:06:59;;;;;;;4.97;1.55;;;19.60;70.90;;;;;;5095813;28;20051;-69
2021/08/26 03:09:25;;;;;;;6.78;1.83;;;19.60;70.90;;;;;;5095865;28;20440;-70
2021/08/26 03:11:51;;;;;;;5.90;1.30;;;19.60;70.90;;;;;;5082852;28;20120;-69
2021/08/26 03:14:16;;;;;;;4.75;1.38;;;19.60;70.80;;;;;;5075156;28;20040;-70
2021/08/26 03:16:42;;;;;;;6.63;1.63;;;19.60;70.90;;;;;;5075184;28;20114;-69
2021/08/26 03:19:08;;;;;;;6.90;1.65;;;19.60;70.90;;;;;;5075292;28;20045;-70
2021/08/26 03:21:33;;;;;;;8.50;1.77;;;19.60;70.80;;;;;;5075424;28;20378;-69
2021/08/26 03:23:59;;;;;;;7.45;1.92;;;19.60;70.80;;;;;;5057492;28;20036;-69
2021/08/26 03:26:25;;;;;;;5.28;1.30;;;19.60;70.90;;;;;;5075215;28;20044;-69
2021/08/26 03:28:50;;;;;;;6.85;1.23;;;19.60;70.80;;;;;;5075505;28;20056;-69
2021/08/26 03:31:16;;;;;;;5.57;1.52;;;19.60;70.80;;;;;;5074740;28;20072;-69
2021/08/26 03:33:42;;;;;;;5.85;1.58;;;19.60;70.90;;;;;;5078116;28;20131;-69
2021/08/26 03:36:08;;;;;;;7.28;1.45;;;19.60;70.80;;;;;;5092373;28;20458;-69
2021/08/26 03:38:33;;;;;;;7.88;1.63;;;19.60;70.80;;;;;;5095451;28;20462;-69
2021/08/26 03:40:59;;;;;;;7.32;2.13;;;19.60;70.90;;;;;;5095364;28;20173;-69
2021/08/26 03:43:26;;;;;;;4.50;1.25;;;19.60;70.80;;;;;;5095220;28;20059;-70
2021/08/26 03:45:52;;;;;;;8.30;1.90;;;19.60;70.90;;;;;;5095100;28;20076;-69
2021/08/26 03:48:17;;;;;;;7.75;1.80;;;19.60;70.90;;;;;;5095509;28;20118;-69
2021/08/26 03:50:43;;;;;;;4.38;1.73;;;19.60;70.90;;;;;;5095201;28;20071;-69
2021/08/26 03:53:09;;;;;;;7.70;1.90;;;19.60;71.00;;;;;;5094473;28;20036;-69
2021/08/26 03:55:35;;;;;;;6.25;1.90;;;19.60;70.90;;;;;;5095093;28;20043;-70
2021/08/26 03:58:00;;;;;;;5.43;1.80;;;19.60;70.90;;;;;;5081992;28;20406;-69
2021/08/26 04:00:26;;;;;;;4.18;1.30;;;19.60;70.90;;;;;;5074772;28;20040;-70
2021/08/26 04:02:51;;;;;;;6.82;2.00;;;19.60;71.00;;;;;;5089276;28;20414;-69
2021/08/26 04:05:17;;;;;;;5.22;1.45;;;19.60;71.00;;;;;;5095479;28;20118;-69
2021/08/26 04:07:43;;;;;;;4.43;1.40;;;19.60;71.10;;;;;;5094967;28;20328;-69
2021/08/26 04:10:09;;;;;;;6.80;2.20;;;19.60;71.00;;;;;;5095179;28;20071;-69
2021/08/26 04:12:35;;;;;;;6.90;1.92;;;19.60;71.00;;;;;;5094708;28;20112;-69
2021/08/26 04:15:00;;;;;;;6.40;2.10;;;19.60;71.70;;;;;;5095066;28;20040;-69
2021/08/26 04:17:26;;;;;;;8.05;2.35;;;19.60;71.00;;;;;;5094693;28;20040;-69
2021/08/26 04:19:52;;;;;;;5.78;1.48;;;19.60;71.00;;;;;;5095047;28;20040;-69
2021/08/26 04:22:17;;;;;;;6.95;1.85;;;19.60;71.00;;;;;;5094893;28;20040;-69
2021/08/26 04:24:43;;;;;;;5.93;1.52;;;19.60;71.00;;;;;;5092990;28;20040;-69
2021/08/26 04:27:09;;;;;;;6.50;1.77;;;19.60;71.00;;;;;;5094373;28;20079;-69
2021/08/26 04:29:35;;;;;;;5.45;1.67;;;19.60;70.90;;;;;;5095485;28;20054;-69
2021/08/26 04:32:01;;;;;;;4.85;1.60;;;19.60;71.00;;;;;;5087539;28;20445;-69
2021/08/26 04:34:27;;;;;;;7.85;1.67;;;19.60;71.00;;;;;;5074805;28;20041;-68
2021/08/26 04:36:54;;;;;;;7.97;1.63;;;19.60;71.10;;;;;;5074440;28;20337;-69
2021/08/26 04:39:19;;;;;;;9.55;2.00;;;19.60;71.20;;;;;;5074627;28;20041;-69
2021/08/26 04:41:45;;;;;;;5.82;1.83;;;19.60;71.20;;;;;;5074817;28;20055;-69
2021/08/26 04:44:11;;;;;;;8.18;1.98;;;19.60;71.30;;;;;;5074843;28;20059;-68
2021/08/26 04:46:36;;;;;;;7.38;2.30;;;19.60;71.30;;;;;;5074340;28;20045;-71
2021/08/26 04:49:02;;;;;;;9.60;2.60;;;19.60;71.50;;;;;;5090752;28;20101;-69
2021/08/26 04:51:28;;;;;;;9.60;1.90;;;19.60;71.50;;;;;;5098315;28;20040;-69
2021/08/26 04:53:54;;;;;;;11.55;3.58;;;19.50;71.60;;;;;;5082167;28;20049;-69
2021/08/26 04:56:20;;;;;;;11.32;3.30;;;19.60;71.20;;;;;;5084490;28;20045;-69
2021/08/26 04:58:45;;;;;;;15.80;3.72;;;19.50;70.60;;;;;;5077688;28;20040;-68
2021/08/26 05:01:11;;;;;;;12.35;3.80;;;19.50;70.30;;;;;;5084970;28;20040;-69
2021/08/26 05:03:37;;;;;;;16.67;4.05;;;19.40;70.00;;;;;;5083015;28;20359;-69
2021/08/26 05:06:04;;;;;;;14.48;3.60;;;19.30;69.80;;;;;;5088926;28;20045;-67
2021/08/26 05:08:29;;;;;;;15.82;3.65;;;19.30;70.00;;;;;;5077899;28;20044;-72
2021/08/26 05:10:55;;;;;;;11.05;3.00;;;19.20;70.10;;;;;;5090491;28;20044;-68
2021/08/26 05:13:21;;;;;;;14.38;3.55;;;19.20;70.20;;;;;;5097869;28;20040;-70
2021/08/26 05:15:47;;;;;;;12.57;2.65;;;19.20;70.30;;;;;;5097887;28;20055;-69
2021/08/26 05:18:12;;;;;;;15.25;3.97;;;19.10;70.10;;;;;;5097976;28;20148;-67
2021/08/26 05:20:38;;;;;;;16.88;4.35;;;19.10;70.10;;;;;;5097530;28;20082;-70
2021/08/26 05:23:04;;;;;;;14.70;3.33;;;19.10;70.10;;;;;;5097760;28;20044;-67
2021/08/26 05:25:30;;;;;;;14.98;3.40;;;19.10;70.20;;;;;;5079468;28;20048;-69
2021/08/26 05:27:56;;;;;;;15.57;4.45;;;19.00;70.30;;;;;;5076833;28;20071;-69
2021/08/26 05:30:21;;;;;;;20.60;3.78;;;19.00;70.70;;;;;;5077368;28;20428;-69
2021/08/26 05:32:48;;;;;;;15.63;4.35;;;19.00;71.20;;;;;;5076996;28;20044;-69
2021/08/26 05:35:14;;;;;;;14.00;3.35;;;19.00;71.60;;;;;;5077271;28;20080;-69
2021/08/26 05:37:40;;;;;;;12.38;3.50;;;19.00;71.90;;;;;;5077039;28;20055;-69
2021/08/26 05:40:07;;;;;;;15.15;3.42;;;19.10;72.00;;;;;;5077039;28;20037;-69
2021/08/26 05:42:33;;;;;;;11.80;3.80;;;19.10;72.10;;;;;;5085137;28;20041;-68
2021/08/26 05:44:58;;;;;;;12.95;3.28;;;19.20;72.20;;;;;;5076909;28;20080;-69
2021/08/26 05:47:24;;;;;;;16.90;4.38;;;19.20;72.20;;;;;;5077103;28;20080;-68
2021/08/26 05:49:50;;;;;;;14.32;2.90;;;19.20;72.50;;;;;;5076887;28;20045;-69
2021/08/26 05:52:16;;;;;;;12.23;3.47;;;19.20;72.60;;;;;;5076683;28;20058;-69
2021/08/26 05:54:41;;;;;;;11.88;3.00;;;19.30;72.50;;;;;;5076811;28;20048;-68
2021/08/26 05:57:07;;;;;;;13.25;3.45;;;19.30;72.60;;;;;;5076520;28;20041;-69
2021/08/26 05:59:33;;;;;;;15.32;3.63;;;19.30;72.70;;;;;;5058664;28;20044;-68
2021/08/26 06:02:01;;;;;;;17.48;3.30;;;19.30;72.70;;;;;;5076037;28;20080;-70
2021/08/26 06:04:27;;;;;;;15.80;3.90;;;19.30;72.80;;;;;;5075999;28;20048;-71
2021/08/26 06:06:54;;;;;;;19.27;4.47;;;19.40;72.80;;;;;;5076236;28;20048;-69
2021/08/26 06:09:19;;;;;;;26.15;5.43;;;19.30;72.80;;;;;;5076041;28;20471;-69
2021/08/26 06:11:45;;;;;;;29.67;5.30;;;19.40;72.90;;;;;;5076584;28;20048;-72
2021/08/26 06:14:11;;;;;;;27.52;4.93;;;19.40;73.50;;;;;;5076325;28;20041;-72
2021/08/26 06:16:37;;;;;;;18.40;3.67;;;19.40;72.80;;;;;;5076258;28;20080;-73
2021/08/26 06:19:03;;;;;;;18.27;4.65;;;19.30;72.80;;;;;;5075920;28;20051;-75
2021/08/26 06:21:29;;;;;;;20.45;4.20;;;19.30;72.80;;;;;;5075984;28;20036;-74
2021/08/26 06:23:55;;;;;;;24.40;5.10;;;19.30;72.80;;;;;;5076119;28;20044;-74
2021/08/26 06:26:20;;;;;;;16.23;4.78;;;19.30;72.80;;;;;;5075911;28;20044;-69
2021/08/26 06:28:46;;;;;;;20.23;4.28;;;19.20;72.80;;;;;;5076243;28;20109;-69
2021/08/26 06:31:13;;;;;;;12.73;3.63;;;19.20;72.80;;;;;;5075613;28;20448;-69
2021/08/26 06:33:39;;;;;;;14.20;3.65;;;19.20;72.70;;;;;;5075934;28;20040;-70
2021/08/26 06:36:05;;;;;;;21.35;4.40;;;19.20;72.90;;;;;;5075843;28;20109;-79
2021/08/26 06:38:31;;;;;;;19.92;4.72;;;19.20;72.90;;;;;;5075437;28;20116;-74
2021/08/26 06:40:57;;;;;;;20.90;4.65;;;19.20;72.90;;;;;;5076554;28;20475;-69
2021/08/26 06:43:22;;;;;;;23.15;4.57;;;19.20;73.10;;;;;;5096049;28;20489;-70
2021/08/26 06:45:48;;;;;;;43.13;6.53;;;19.10;73.20;;;;;;5096268;28;20094;-69
2021/08/26 06:48:14;;;;;;;23.17;5.45;;;19.00;73.30;;;;;;5096015;28;20116;-69
2021/08/26 06:50:40;;;;;;;16.38;4.72;;;19.00;73.60;;;;;;5095767;28;20051;-69
2021/08/26 06:53:05;;;;;;;20.00;4.75;;;18.90;73.70;;;;;;5095678;28;20055;-70
2021/08/26 06:55:31;;;;;;;23.80;4.47;;;18.90;73.90;;;;;;5096298;28;20044;-69
2021/08/26 06:57:57;;;;;;;25.17;5.18;;;18.80;74.10;;;;;;5090610;28;20046;-69
2021/08/26 07:00:23;;;;;;;15.95;3.78;;;18.70;74.30;;;;;;5075502;28;20051;-70
2021/08/26 07:02:48;;;;;;;15.20;4.32;;;18.70;74.60;;;;;;5075641;28;20123;-69
2021/08/26 07:05:14;;;;;;;20.02;5.00;;;18.70;74.80;;;;;;5075336;28;20048;-70
2021/08/26 07:07:41;;;;;;;22.83;5.40;;;18.70;74.90;;;;;;5075392;28;20114;-70
2021/08/26 07:10:07;;;;;;;20.30;4.60;;;18.70;75.00;;;;;;5075340;28;20048;-69
2021/08/26 07:12:33;;;;;;;23.15;6.38;;;18.60;75.20;;;;;;5075186;28;20087;-69
2021/08/26 07:14:59;;;;;;;24.77;5.57;;;18.70;75.90;;;;;;5074672;28;20083;-66
2021/08/26 07:17:25;;;;;;;19.67;5.63;;;18.70;75.30;;;;;;5075473;28;20051;-66
2021/08/26 07:19:51;;;;;;;20.73;5.03;;;18.70;75.50;;;;;;5075207;28;20087;-69
2021/08/26 07:22:18;;;;;;;21.95;6.00;;;18.80;75.80;;;;;;5076084;28;20072;-68
2021/08/26 07:24:44;;;;;;;22.10;5.40;;;18.90;76.00;;;;;;5075216;28;20045;-68
2021/08/26 07:27:10;;;;;;;15.23;4.28;;;18.90;75.90;;;;;;5075298;28;20127;-68
2021/08/26 07:29:36;;;;;;;20.52;5.10;;;19.00;75.70;;;;;;5075420;28;20040;-70
2021/08/26 07:32:03;;;;;;;18.92;4.75;;;19.00;75.50;;;;;;5075317;28;20040;-68
2021/08/26 07:34:29;;;;;;;23.50;4.53;;;19.00;75.40;;;;;;5075056;28;20036;-69
2021/08/26 07:36:55;;;;;;;19.80;5.35;;;19.10;75.40;;;;;;5074841;28;20561;-68
2021/08/26 07:39:20;;;;;;;17.35;4.85;;;19.10;75.20;;;;;;5074658;28;20041;-68
2021/08/26 07:41:46;;;;;;;26.48;5.13;;;19.20;75.20;;;;;;5075202;28;20051;-68
2021/08/26 07:44:12;;;;;;;21.55;5.22;;;19.20;75.00;;;;;;5076193;28;20377;-67
2021/08/26 07:46:37;;;;;;;21.30;4.70;;;19.20;75.00;;;;;;5074997;28;20125;-66
2021/08/26 07:49:04;;;;;;;13.20;3.95;;;19.20;74.90;;;;;;5075102;28;20149;-65
2021/08/26 07:51:30;;;;;;;12.98;4.35;;;19.30;74.90;;;;;;5075351;28;20321;-65
2021/08/26 07:53:55;;;;;;;13.40;4.03;;;19.30;74.90;;;;;;5074323;28;20051;-66
2021/08/26 07:56:21;;;;;;;19.00;5.35;;;19.30;74.90;;;;;;5074650;28;20052;-66
2021/08/26 07:58:47;;;;;;;17.40;4.15;;;19.30;74.90;;;;;;5074630;28;20339;-66
2021/08/26 08:01:13;;;;;;;21.20;4.45;;;19.30;74.80;;;;;;5074707;28;20059;-66
2021/08/26 08:03:39;;;;;;;13.82;3.83;;;19.30;75.00;;;;;;5095506;28;20059;-66
2021/08/26 08:06:05;;;;;;;13.63;4.05;;;19.40;74.80;;;;;;5108250;28;20043;-66
2021/08/26 08:08:32;;;;;;;19.15;4.72;;;19.40;75.10;;;;;;5115653;28;20100;-66
2021/08/26 08:10:58;;;;;;;14.77;4.07;;;19.40;75.10;;;;;;5103296;28;20036;-66
2021/08/26 08:13:24;;;;;;;14.65;4.20;;;19.40;75.00;;;;;;5095277;28;20128;-66
2021/08/26 08:15:50;;;;;;;14.35;4.40;;;19.40;75.00;;;;;;5095091;28;20436;-67
2021/08/26 08:18:16;;;;;;;12.13;4.07;;;19.40;75.00;;;;;;5094558;28;20048;-67
2021/08/26 08:20:42;;;;;;;16.20;4.43;;;19.40;75.00;;;;;;5090143;28;20032;-67
2021/08/26 08:23:08;;;;;;;13.07;4.00;;;19.50;75.10;;;;;;5087616;28;20040;-67
2021/08/26 08:25:34;;;;;;;14.68;4.13;;;19.50;74.90;;;;;;5078434;28;20063;-68
2021/08/26 08:28:00;;;;;;;14.02;3.83;;;19.50;74.70;;;;;;5085775;28;20048;-68
2021/08/26 08:30:28;;;;;;;14.23;3.80;;;19.50;74.80;;;;;;5086287;28;20036;-68
2021/08/26 08:32:55;;;;;;;20.48;4.45;;;19.50;74.90;;;;;;5078289;28;20053;-68
2021/08/26 08:35:23;;;;;;;13.27;4.22;;;19.50;74.80;;;;;;5078274;28;20075;-67
2021/08/26 08:37:50;;;;;;;19.73;4.65;;;19.50;74.60;;;;;;5078153;28;20051;-71
2021/08/26 08:40:17;;;;;;;17.42;4.38;;;19.50;74.70;;;;;;5092946;28;20524;-68
2021/08/26 08:42:46;;;;;;;14.75;4.53;;;19.50;74.70;;;;;;5098574;28;20040;-68
2021/08/26 08:45:12;;;;;;;18.48;4.30;;;19.60;74.70;;;;;;5098340;28;20044;-68
2021/08/26 08:47:39;;;;;;;16.58;4.75;;;19.50;74.40;;;;;;5098193;28;20047;-68
2021/08/26 08:50:06;;;;;;;20.90;6.00;;;19.60;74.40;;;;;;5087970;28;20109;-68
2021/08/26 08:52:39;;;;;;;23.08;5.72;;;19.60;74.30;;;;;;5077860;28;20048;-68
2021/08/26 08:55:07;;;;;;;20.20;5.63;;;19.60;74.20;;;;;;5078351;28;20048;-67
2021/08/26 08:57:36;;;;;;;29.63;6.43;;;19.60;74.20;;;;;;5095274;28;20477;-67
2021/08/26 09:00:08;;;;;;;21.85;5.05;;;19.60;74.10;;;;;;5097526;28;20358;-68
2021/08/26 09:02:33;;;;;;;24.00;5.55;;;19.60;74.00;;;;;;5097931;28;20091;-68
2021/08/26 09:05:00;;;;;;;20.58;6.03;;;19.60;74.00;;;;;;5080645;28;20075;-68
2021/08/26 09:07:31;;;;;;;22.42;5.72;;;19.60;74.00;;;;;;5098547;28;20040;-68
2021/08/26 09:09:57;;;;;;;27.23;6.10;;;19.60;74.00;;;;;;5098144;28;20040;-68
2021/08/26 09:12:42;;;;;;;21.98;5.60;;;19.70;74.10;;;;;;5097509;28;20047;-71
2021/08/26 09:15:16;;;;;;;18.58;5.45;;;19.70;73.90;;;;;;5096736;28;20051;-71
2021/08/26 09:17:44;;;;;;;20.02;6.10;;;19.70;73.50;;;;;;5077441;28;20067;-69
2021/08/26 09:20:13;;;;;;;20.98;5.68;;;19.60;73.80;;;;;;5078229;28;20114;-72
2021/08/26 09:22:39;;;;;;;21.98;5.93;;;19.60;74.00;;;;;;5087514;28;20097;-71
2021/08/26 09:25:06;;;;;;;18.83;6.10;;;19.60;73.60;;;;;;5097419;28;20047;-72
2021/08/26 09:27:32;;;;;;;23.45;6.47;;;19.50;73.50;;;;;;5078259;28;20036;-72
2021/08/26 09:30:19;;;;;;;24.27;5.53;;;19.50;73.70;;;;;;5097095;28;20135;-71
2021/08/26 09:32:59;;;;;;;18.23;5.05;;;19.50;74.00;;;;;;5097269;28;20040;-73
2021/08/26 09:35:30;;;;;;;19.70;5.05;;;19.60;74.20;;;;;;5095563;28;20435;-72
2021/08/26 09:38:01;;;;;;;22.50;4.95;;;19.60;74.00;;;;;;5085865;28;20111;-71
2021/08/26 09:40:30;;;;;;;20.50;5.60;;;19.60;74.00;;;;;;5076785;28;20440;-71
2021/08/26 09:43:06;;;;;;;24.10;6.00;;;19.60;74.00;;;;;;5076755;28;20040;-71
2021/08/26 09:45:34;;;;;;;21.40;5.60;;;19.70;74.00;;;;;;5080846;28;20036;-72
2021/08/26 09:48:06;;;;;;;20.40;4.80;;;19.60;74.00;;;;;;5086035;28;20115;-73
2021/08/26 09:50:47;;;;;;;16.83;5.07;;;19.70;74.10;;;;;;5078782;28;20113;-71
2021/08/26 09:53:15;;;;;;;15.43;5.40;;;19.70;73.90;;;;;;5078863;28;20063;-74
2021/08/26 09:55:50;;;;;;;20.83;5.18;;;19.70;73.80;;;;;;5080944;28;20036;-68
2021/08/26 09:58:19;;;;;;;17.65;4.95;;;19.70;73.80;;;;;;5088843;28;20082;-68
2021/08/26 10:00:45;;;;;;;22.50;5.13;;;19.70;73.80;;;;;;5087385;28;20143;-68
2021/08/26 10:03:12;;;;;;;17.63;4.70;;;19.70;73.80;;;;;;5079500;28;20164;-69
2021/08/26 10:05:42;;;;;;;18.42;5.60;;;19.70;73.80;;;;;;5082562;28;20119;-68
2021/08/26 10:08:08;;;;;;;14.00;4.53;;;19.80;73.90;;;;;;5082704;28;20326;-68
2021/08/26 10:10:35;;;;;;;15.80;4.32;;;19.70;73.80;;;;;;5082110;28;20036;-69
2021/08/26 10:13:01;;;;;;;13.20;4.43;;;19.80;74.50;;;;;;5081882;28;20041;-72
2021/08/26 10:15:28;;;;;;;18.58;4.78;;;19.80;73.90;;;;;;5079377;28;20044;-70
2021/08/26 10:17:54;;;;;;;14.90;4.80;;;19.80;73.90;;;;;;5081843;28;20044;-68
2021/08/26 10:20:23;;;;;;;15.25;4.60;;;19.80;73.80;;;;;;5078039;28;20055;-69
2021/08/26 10:22:51;;;;;;;14.73;4.53;;;19.80;73.80;;;;;;5081316;28;20048;-68
2021/08/26 10:25:17;;;;;;;12.10;4.35;;;19.80;73.80;;;;;;5092735;28;20111;-69
2021/08/26 10:27:44;;;;;;;15.38;4.53;;;19.80;73.90;;;;;;5082014;28;20051;-68
2021/08/26 10:30:28;;;;;;;14.93;4.95;;;19.90;73.90;;;;;;5075653;28;20455;-68
2021/08/26 10:33:07;;;;;;;19.40;4.75;;;19.90;73.90;;;;;;5076472;28;20127;-68
2021/08/26 10:35:34;;;;;;;12.15;3.97;;;19.80;73.90;;;;;;5078026;28;20434;-68
2021/08/26 10:37:59;;;;;;;15.35;4.25;;;19.90;74.00;;;;;;5076132;28;20036;-69
2021/08/26 10:40:25;;;;;;;14.02;4.90;;;19.90;73.90;;;;;;5085519;28;20046;-68
2021/08/26 10:42:52;;;;;;;12.27;4.28;;;19.90;74.00;;;;;;5081569;28;20116;-68
2021/08/26 10:45:35;;;;;;;12.05;3.60;;;19.90;74.00;;;;;;5080224;28;20323;-68
2021/08/26 10:48:01;;;;;;;13.75;4.03;;;19.90;73.90;;;;;;5091920;28;20097;-71
2021/08/26 10:50:38;;;;;;;11.50;3.75;;;19.90;74.00;;;;;;5083358;28;20119;-72
2021/08/26 10:53:11;;;;;;;11.18;4.00;;;19.90;73.50;;;;;;5094891;28;20059;-72
2021/08/26 10:55:44;;;;;;;14.23;3.53;;;19.90;73.60;;;;;;5093753;28;20469;-72
2021/08/26 10:58:22;;;;;;;11.63;4.15;;;20.00;73.60;;;;;;5093617;28;20032;-70
2021/08/26 11:01:00;;;;;;;14.55;3.53;;;20.00;73.40;;;;;;5091900;28;20477;-72
2021/08/26 11:03:35;;;;;;;13.68;4.00;;;20.00;73.60;;;;;;5082017;28;20064;-70
2021/08/26 11:06:19;;;;;;;11.73;3.67;;;19.90;73.60;;;;;;5093560;28;20118;-68
2021/08/26 11:08:52;;;;;;;12.23;4.20;;;20.00;73.90;;;;;;5087520;28;20141;-68
2021/08/26 11:11:29;;;;;;;12.63;3.63;;;20.00;73.90;;;;;;5075414;28;20324;-68
2021/08/26 11:14:07;;;;;;;9.68;3.33;;;20.00;74.10;;;;;;5075242;28;20044;-68
2021/08/26 11:16:47;;;;;;;11.70;3.90;;;20.00;74.00;;;;;;5085572;28;20055;-68
2021/08/26 11:19:15;;;;;;;11.43;3.35;;;20.00;73.80;;;;;;5095516;28;20462;-66
2021/08/26 11:21:44;;;;;;;8.45;3.03;;;20.00;73.70;;;;;;5095428;28;20040;-67
2021/08/26 11:24:15;;;;;;;8.23;3.58;;;20.00;73.80;;;;;;5095273;28;20047;-67
2021/08/26 11:27:04;;;;;;;8.98;3.72;;;20.10;73.90;;;;;;5095350;28;20040;-68
2021/08/26 11:29:34;;;;;;;13.60;3.65;;;20.00;73.80;;;;;;5095566;28;20083;-68
2021/08/26 11:32:01;;;;;;;10.68;3.20;;;20.10;74.00;;;;;;5095258;28;20044;-68
2021/08/26 11:34:40;;;;;;;9.48;3.03;;;20.10;74.00;;;;;;5095092;28;20036;-70
2021/08/26 11:37:34;;;;;;;9.55;3.10;;;20.00;73.90;;;;;;5093701;28;20100;-68
2021/08/26 11:40:21;;;;;;;11.27;4.15;;;20.10;73.90;;;;;;5085329;28;20063;-68
2021/08/26 11:42:49;;;;;;;10.52;3.80;;;20.00;73.90;;;;;;5074671;28;20059;-69
2021/08/26 11:45:29;;;;;;;9.68;3.00;;;20.00;74.00;;;;;;5074838;28;20048;-68
2021/08/26 11:48:05;;;;;;;11.45;3.22;;;20.00;74.20;;;;;;5074861;28;20426;-70
2021/08/26 11:50:35;;;;;;;9.35;3.67;;;20.10;74.40;;;;;;5075102;28;20040;-69
2021/08/26 11:53:09;;;;;;;10.93;2.95;;;20.10;74.30;;;;;;5075135;28;20048;-71
2021/08/26 11:55:38;;;;;;;13.55;3.70;;;20.10;74.10;;;;;;5074709;28;20036;-70
2021/08/26 11:58:07;;;;;;;14.02;4.05;;;20.10;74.00;;;;;;5089534;28;20048;-71
2021/08/26 12:00:38;;;;;;;15.45;3.75;;;20.20;74.00;;;;;;5099419;28;20148;-72
2021/08/26 12:03:04;;;;;;;14.80;3.25;;;20.10;73.80;;;;;;5099121;28;20351;-70
2021/08/26 12:05:30;;;;;;;12.32;2.97;;;20.10;73.80;;;;;;5099313;28;20036;-68
2021/08/26 12:07:56;;;;;;;12.45;3.33;;;20.20;73.70;;;;;;5099265;28;20071;-68
2021/08/26 12:10:30;;;;;;;11.52;3.25;;;20.20;73.70;;;;;;5099029;28;20044;-68
2021/08/26 12:13:06;;;;;;;13.07;3.95;;;20.20;73.80;;;;;;5098846;28;20032;-68
2021/08/26 12:15:39;;;;;;;12.45;3.20;;;20.20;73.80;;;;;;5099011;28;20058;-68
2021/08/26 12:18:09;;;;;;;11.45;3.42;;;20.20;73.80;;;;;;5099118;28;20120;-68
2021/08/26 12:20:40;;;;;;;13.60;4.40;;;20.20;73.90;;;;;;5098711;28;20062;-68
2021/08/26 12:23:06;;;;;;;12.55;2.95;;;20.20;73.90;;;;;;5099423;28;20320;-68
2021/08/26 12:25:38;;;;;;;9.00;3.05;;;20.20;73.90;;;;;;5092326;28;20044;-71
2021/08/26 12:28:08;;;;;;;8.35;3.03;;;20.20;73.60;;;;;;5098612;28;20493;-70
2021/08/26 12:30:38;;;;;;;12.48;3.03;;;20.20;73.70;;;;;;5093532;28;20068;-70
2021/08/26 12:33:24;;;;;;;12.73;3.25;;;20.20;73.80;;;;;;5079190;28;20380;-68
2021/08/26 12:35:50;;;;;;;9.95;2.40;;;20.20;73.20;;;;;;5088572;28;20472;-67
2021/08/26 12:38:29;;;;;;;10.63;2.60;;;20.20;73.80;;;;;;5098896;28;20040;-67
2021/08/26 12:40:58;;;;;;;11.68;2.63;;;20.20;73.50;;;;;;5098428;28;20083;-67
2021/08/26 12:43:25;;;;;;;8.25;2.78;;;20.20;73.70;;;;;;5098684;28;20048;-67
2021/08/26 12:46:08;;;;;;;8.75;2.45;;;20.20;73.70;;;;;;5098525;28;20112;-67
2021/08/26 12:48:36;;;;;;;6.82;2.50;;;20.20;73.60;;;;;;5098063;28;20043;-67
2021/08/26 12:51:24;;;;;;;7.40;2.50;;;20.20;73.80;;;;;;5098062;28;20506;-67